sensor_id;sensor_type;location;lat;lon;timestamp;pressure;altitude;pressure_sealevel;temperature;humidity
9415;BME280;4746;35.664;139.738;2023-10-31T00:01:10;101142.94;;;23.81;43.46
9415;BME280;4746;35.664;139.738;2023-10-31T00:03:38;101140.91;;;23.88;43.34
9415;BME280;4746;35.664;139.738;2023-10-31T00:06:07;101140.44;;;24.02;43.46
9415;BME280;4746;35.664;139.738;2023-10-31T00:08:35;101142.66;;;24.14;43.23
9415;BME280;4746;35.664;139.738;2023-10-31T00:11:03;101139.63;;;24.26;43.00
9415;BME280;4746;35.664;139.738;2023-10-31T00:13:30;101138.53;;;24.33;42.55
9415;BME280;4746;35.664;139.738;2023-10-31T00:15:58;101141.66;;;24.44;42.08
9415;BME280;4746;35.664;139.738;2023-10-31T00:18:25;101134.28;;;24.54;42.50
9415;BME280;4746;35.664;139.738;2023-10-31T00:20:53;101134.06;;;24.60;42.01
9415;BME280;4746;35.664;139.738;2023-10-31T00:23:24;101136.31;;;24.71;42.17
9415;BME280;4746;35.664;139.738;2023-10-31T00:25:51;101145.75;;;24.76;41.96
9415;BME280;4746;35.664;139.738;2023-10-31T00:28:19;101138.44;;;24.84;41.61
9415;BME280;4746;35.664;139.738;2023-10-31T00:30:47;101143.44;;;24.90;41.56
9415;BME280;4746;35.664;139.738;2023-10-31T00:33:15;101142.22;;;25.00;41.51
9415;BME280;4746;35.664;139.738;2023-10-31T00:35:45;101136.97;;;25.00;41.05
9415;BME280;4746;35.664;139.738;2023-10-31T00:38:13;101128.69;;;25.12;41.04
9415;BME280;4746;35.664;139.738;2023-10-31T00:40:40;101132.00;;;25.17;40.93
9415;BME280;4746;35.664;139.738;2023-10-31T00:43:08;101126.75;;;25.17;40.98
9415;BME280;4746;35.664;139.738;2023-10-31T00:45:36;101122.25;;;25.21;41.32
9415;BME280;4746;35.664;139.738;2023-10-31T00:48:03;101122.84;;;25.27;40.82
9415;BME280;4746;35.664;139.738;2023-10-31T00:50:31;101118.28;;;25.32;40.92
9415;BME280;4746;35.664;139.738;2023-10-31T00:53:04;101119.59;;;25.43;40.88
9415;BME280;4746;35.664;139.738;2023-10-31T00:55:31;101127.09;;;25.52;40.70
9415;BME280;4746;35.664;139.738;2023-10-31T00:57:59;101118.00;;;25.61;40.68
9415;BME280;4746;35.664;139.738;2023-10-31T01:00:29;101116.72;;;25.71;40.64
9415;BME280;4746;35.664;139.738;2023-10-31T01:02:57;101109.22;;;25.83;40.42
9415;BME280;4746;35.664;139.738;2023-10-31T01:05:24;101111.59;;;25.89;40.10
9415;BME280;4746;35.664;139.738;2023-10-31T01:07:54;101110.63;;;25.92;39.83
9415;BME280;4746;35.664;139.738;2023-10-31T01:10:23;101105.91;;;25.99;40.05
9415;BME280;4746;35.664;139.738;2023-10-31T01:12:50;101103.53;;;26.13;39.78
9415;BME280;4746;35.664;139.738;2023-10-31T01:15:18;101093.31;;;26.27;39.43
9415;BME280;4746;35.664;139.738;2023-10-31T01:17:45;101094.88;;;26.31;39.09
9415;BME280;4746;35.664;139.738;2023-10-31T01:20:13;101095.69;;;26.33;39.04
9415;BME280;4746;35.664;139.738;2023-10-31T01:22:44;101095.44;;;26.39;39.15
9415;BME280;4746;35.664;139.738;2023-10-31T01:25:14;101086.38;;;26.46;38.78
9415;BME280;4746;35.664;139.738;2023-10-31T01:27:42;101088.47;;;26.58;39.03
9415;BME280;4746;35.664;139.738;2023-10-31T01:30:11;101078.09;;;26.73;38.58
9415;BME280;4746;35.664;139.738;2023-10-31T01:32:38;101083.03;;;26.81;38.63
9415;BME280;4746;35.664;139.738;2023-10-31T01:35:06;101075.59;;;26.90;38.33
9415;BME280;4746;35.664;139.738;2023-10-31T01:37:34;101086.63;;;26.98;38.18
9415;BME280;4746;35.664;139.738;2023-10-31T01:40:03;101066.00;;;27.08;38.04
9415;BME280;4746;35.664;139.738;2023-10-31T01:42:31;101067.94;;;27.23;38.09
9415;BME280;4746;35.664;139.738;2023-10-31T01:44:58;101063.75;;;27.36;37.86
9415;BME280;4746;35.664;139.738;2023-10-31T01:47:26;101065.09;;;27.44;37.58
9415;BME280;4746;35.664;139.738;2023-10-31T01:49:54;101061.34;;;27.49;37.31
9415;BME280;4746;35.664;139.738;2023-10-31T01:52:22;101054.34;;;27.48;37.16
9415;BME280;4746;35.664;139.738;2023-10-31T01:54:55;101053.56;;;27.46;36.91
9415;BME280;4746;35.664;139.738;2023-10-31T01:57:23;101056.69;;;27.54;37.01
9415;BME280;4746;35.664;139.738;2023-10-31T01:59:51;101054.72;;;27.76;36.70
9415;BME280;4746;35.664;139.738;2023-10-31T02:02:26;101051.03;;;27.97;36.62
9415;BME280;4746;35.664;139.738;2023-10-31T02:04:54;101044.91;;;28.13;35.90
9415;BME280;4746;35.664;139.738;2023-10-31T02:07:22;101035.22;;;28.31;35.59
9415;BME280;4746;35.664;139.738;2023-10-31T02:09:50;101040.34;;;28.34;35.75
9415;BME280;4746;35.664;139.738;2023-10-31T02:12:38;101038.31;;;28.39;35.63
9415;BME280;4746;35.664;139.738;2023-10-31T02:15:09;101038.25;;;28.23;35.31
9415;BME280;4746;35.664;139.738;2023-10-31T02:17:42;101031.56;;;28.16;35.79
9415;BME280;4746;35.664;139.738;2023-10-31T02:20:21;101029.94;;;28.31;35.95
9415;BME280;4746;35.664;139.738;2023-10-31T02:22:49;101028.16;;;28.64;34.83
9415;BME280;4746;35.664;139.738;2023-10-31T02:25:19;101023.28;;;28.88;34.13
9415;BME280;4746;35.664;139.738;2023-10-31T02:27:47;101027.56;;;29.06;33.85
9415;BME280;4746;35.664;139.738;2023-10-31T02:30:15;101019.38;;;29.26;33.39
9415;BME280;4746;35.664;139.738;2023-10-31T02:32:43;101018.25;;;29.30;32.38
9415;BME280;4746;35.664;139.738;2023-10-31T02:35:11;101020.69;;;29.35;32.63
9415;BME280;4746;35.664;139.738;2023-10-31T02:37:41;101007.25;;;29.22;33.02
9415;BME280;4746;35.664;139.738;2023-10-31T02:40:10;101000.72;;;29.14;32.74
9415;BME280;4746;35.664;139.738;2023-10-31T02:42:38;100995.03;;;29.06;32.75
9415;BME280;4746;35.664;139.738;2023-10-31T02:45:09;101003.00;;;29.04;33.09
9415;BME280;4746;35.664;139.738;2023-10-31T02:47:37;100997.91;;;29.01;32.90
9415;BME280;4746;35.664;139.738;2023-10-31T02:50:06;100985.66;;;29.00;33.17
9415;BME280;4746;35.664;139.738;2023-10-31T02:52:34;100984.28;;;28.93;33.03
9415;BME280;4746;35.664;139.738;2023-10-31T02:55:01;100978.25;;;28.91;32.51
9415;BME280;4746;35.664;139.738;2023-10-31T02:57:29;100977.72;;;28.85;32.54
9415;BME280;4746;35.664;139.738;2023-10-31T02:59:57;100975.69;;;28.90;31.99
9415;BME280;4746;35.664;139.738;2023-10-31T03:02:24;100963.50;;;28.87;31.84
9415;BME280;4746;35.664;139.738;2023-10-31T03:04:52;100970.84;;;28.83;32.38
9415;BME280;4746;35.664;139.738;2023-10-31T03:07:20;100972.88;;;28.78;31.70
9415;BME280;4746;35.664;139.738;2023-10-31T03:09:47;100976.41;;;28.61;32.15
9415;BME280;4746;35.664;139.738;2023-10-31T03:12:15;100969.09;;;28.51;32.32
9415;BME280;4746;35.664;139.738;2023-10-31T03:14:44;100974.69;;;28.45;32.83
9415;BME280;4746;35.664;139.738;2023-10-31T03:17:11;100973.78;;;28.29;32.66
9415;BME280;4746;35.664;139.738;2023-10-31T03:19:39;100985.13;;;28.14;32.90
9415;BME280;4746;35.664;139.738;2023-10-31T03:22:06;100981.19;;;28.06;33.40
9415;BME280;4746;35.664;139.738;2023-10-31T03:24:37;100976.06;;;28.03;33.29
9415;BME280;4746;35.664;139.738;2023-10-31T03:27:05;100971.41;;;27.91;33.46
9415;BME280;4746;35.664;139.738;2023-10-31T03:29:35;100983.47;;;27.79;33.27
9415;BME280;4746;35.664;139.738;2023-10-31T03:32:02;100973.31;;;27.72;33.32
9415;BME280;4746;35.664;139.738;2023-10-31T03:34:32;100981.59;;;27.64;33.49
9415;BME280;4746;35.664;139.738;2023-10-31T03:36:59;100967.94;;;27.56;34.00
9415;BME280;4746;35.664;139.738;2023-10-31T03:39:27;100967.31;;;27.51;33.88
9415;BME280;4746;35.664;139.738;2023-10-31T03:41:55;100962.34;;;27.45;33.83
9415;BME280;4746;35.664;139.738;2023-10-31T03:44:22;100958.94;;;27.43;34.18
9415;BME280;4746;35.664;139.738;2023-10-31T03:46:50;100955.38;;;27.44;33.92
9415;BME280;4746;35.664;139.738;2023-10-31T03:49:17;100957.41;;;27.39;33.97
9415;BME280;4746;35.664;139.738;2023-10-31T03:51:46;100957.22;;;27.42;33.74
9415;BME280;4746;35.664;139.738;2023-10-31T03:54:15;100950.50;;;27.37;33.76
9415;BME280;4746;35.664;139.738;2023-10-31T03:56:44;100941.97;;;27.32;33.35
9415;BME280;4746;35.664;139.738;2023-10-31T03:59:13;100940.50;;;27.27;33.53
9415;BME280;4746;35.664;139.738;2023-10-31T04:01:40;100937.66;;;27.31;33.54
9415;BME280;4746;35.664;139.738;2023-10-31T04:04:09;100946.88;;;27.39;33.09
9415;BME280;4746;35.664;139.738;2023-10-31T04:06:37;100930.81;;;27.44;33.78
9415;BME280;4746;35.664;139.738;2023-10-31T04:09:07;100933.22;;;27.48;33.42
9415;BME280;4746;35.664;139.738;2023-10-31T04:11:35;100923.56;;;27.49;33.50
9415;BME280;4746;35.664;139.738;2023-10-31T04:14:03;100927.88;;;27.50;33.27
9415;BME280;4746;35.664;139.738;2023-10-31T04:16:31;100922.56;;;27.35;33.84
9415;BME280;4746;35.664;139.738;2023-10-31T04:18:59;100913.19;;;27.63;33.57
9415;BME280;4746;35.664;139.738;2023-10-31T04:21:28;100917.50;;;27.81;32.71
9415;BME280;4746;35.664;139.738;2023-10-31T04:23:55;100922.56;;;27.68;33.24
9415;BME280;4746;35.664;139.738;2023-10-31T04:26:23;100916.41;;;27.51;33.24
9415;BME280;4746;35.664;139.738;2023-10-31T04:28:51;100918.81;;;27.38;33.81
9415;BME280;4746;35.664;139.738;2023-10-31T04:31:19;100914.47;;;27.21;33.54
9415;BME280;4746;35.664;139.738;2023-10-31T04:33:46;100911.81;;;27.04;33.97
9415;BME280;4746;35.664;139.738;2023-10-31T04:36:17;100913.22;;;26.92;34.30
9415;BME280;4746;35.664;139.738;2023-10-31T04:38:45;100914.53;;;26.84;34.07
9415;BME280;4746;35.664;139.738;2023-10-31T04:41:18;100918.16;;;26.81;34.16
9415;BME280;4746;35.664;139.738;2023-10-31T04:43:46;100914.84;;;26.60;34.47
9415;BME280;4746;35.664;139.738;2023-10-31T04:46:15;100904.75;;;26.51;34.82
9415;BME280;4746;35.664;139.738;2023-10-31T04:48:43;100906.53;;;26.50;35.01
9415;BME280;4746;35.664;139.738;2023-10-31T04:51:13;100901.00;;;26.56;35.22
9415;BME280;4746;35.664;139.738;2023-10-31T04:53:41;100900.19;;;26.54;34.71
9415;BME280;4746;35.664;139.738;2023-10-31T04:56:15;100909.31;;;26.66;34.83
9415;BME280;4746;35.664;139.738;2023-10-31T04:58:43;100904.88;;;26.66;35.01
9415;BME280;4746;35.664;139.738;2023-10-31T05:01:13;100899.97;;;26.77;34.74
9415;BME280;4746;35.664;139.738;2023-10-31T05:03:42;100883.97;;;26.81;34.94
9415;BME280;4746;35.664;139.738;2023-10-31T05:06:10;100895.97;;;26.87;34.66
9415;BME280;4746;35.664;139.738;2023-10-31T05:08:38;100893.81;;;26.95;34.52
9415;BME280;4746;35.664;139.738;2023-10-31T05:11:11;100889.47;;;27.12;34.37
9415;BME280;4746;35.664;139.738;2023-10-31T05:13:42;100895.44;;;27.16;34.02
9415;BME280;4746;35.664;139.738;2023-10-31T05:16:10;100891.63;;;27.21;33.75
9415;BME280;4746;35.664;139.738;2023-10-31T05:18:39;100891.81;;;27.35;33.65
9415;BME280;4746;35.664;139.738;2023-10-31T05:21:07;100889.47;;;27.46;34.01
9415;BME280;4746;35.664;139.738;2023-10-31T05:23:36;100892.81;;;27.66;33.75
9415;BME280;4746;35.664;139.738;2023-10-31T05:26:06;100881.69;;;27.94;33.57
9415;BME280;4746;35.664;139.738;2023-10-31T05:28:34;100886.19;;;28.24;32.69
9415;BME280;4746;35.664;139.738;2023-10-31T05:31:01;100886.38;;;28.67;32.22
9415;BME280;4746;35.664;139.738;2023-10-31T05:33:32;100884.59;;;29.28;31.90
9415;BME280;4746;35.664;139.738;2023-10-31T05:36:00;100876.34;;;30.46;30.05
9415;BME280;4746;35.664;139.738;2023-10-31T05:38:29;100874.16;;;32.43;27.81
9415;BME280;4746;35.664;139.738;2023-10-31T05:40:56;100882.41;;;34.45;25.62
9415;BME280;4746;35.664;139.738;2023-10-31T05:43:25;100877.84;;;35.72;24.87
9415;BME280;4746;35.664;139.738;2023-10-31T05:45:54;100878.72;;;36.32;23.62
9415;BME280;4746;35.664;139.738;2023-10-31T05:48:22;100882.69;;;35.87;23.53
9415;BME280;4746;35.664;139.738;2023-10-31T05:50:50;100881.56;;;35.08;23.79
9415;BME280;4746;35.664;139.738;2023-10-31T05:53:17;100880.50;;;34.03;24.63
9415;BME280;4746;35.664;139.738;2023-10-31T05:55:45;100884.00;;;33.13;25.52
9415;BME280;4746;35.664;139.738;2023-10-31T05:58:13;100881.56;;;32.03;26.82
9415;BME280;4746;35.664;139.738;2023-10-31T06:00:40;100892.13;;;31.14;27.64
9415;BME280;4746;35.664;139.738;2023-10-31T06:03:08;100891.72;;;30.54;28.12
9415;BME280;4746;35.664;139.738;2023-10-31T06:05:36;100880.69;;;30.06;28.74
9415;BME280;4746;35.664;139.738;2023-10-31T06:08:06;100881.59;;;29.63;29.34
9415;BME280;4746;35.664;139.738;2023-10-31T06:10:36;100881.16;;;29.41;30.21
9415;BME280;4746;35.664;139.738;2023-10-31T06:13:03;100880.91;;;29.30;30.36
9415;BME280;4746;35.664;139.738;2023-10-31T06:15:31;100885.72;;;29.24;30.31
9415;BME280;4746;35.664;139.738;2023-10-31T06:18:00;100878.16;;;29.33;30.65
9415;BME280;4746;35.664;139.738;2023-10-31T06:20:28;100876.03;;;29.54;30.48
9415;BME280;4746;35.664;139.738;2023-10-31T06:22:55;100878.59;;;29.83;30.24
9415;BME280;4746;35.664;139.738;2023-10-31T06:25:26;100875.38;;;30.61;28.85
9415;BME280;4746;35.664;139.738;2023-10-31T06:27:55;100882.56;;;30.59;29.15
9415;BME280;4746;35.664;139.738;2023-10-31T06:30:23;100871.34;;;30.28;29.56
9415;BME280;4746;35.664;139.738;2023-10-31T06:32:53;100886.06;;;30.32;29.82
9415;BME280;4746;35.664;139.738;2023-10-31T06:35:24;100873.28;;;30.66;29.42
9415;BME280;4746;35.664;139.738;2023-10-31T06:37:55;100884.03;;;31.03;28.70
9415;BME280;4746;35.664;139.738;2023-10-31T06:40:25;100872.47;;;30.78;29.17
9415;BME280;4746;35.664;139.738;2023-10-31T06:42:53;100884.47;;;30.29;29.94
9415;BME280;4746;35.664;139.738;2023-10-31T06:45:21;100871.94;;;29.91;30.00
9415;BME280;4746;35.664;139.738;2023-10-31T06:47:51;100870.28;;;29.61;30.66
9415;BME280;4746;35.664;139.738;2023-10-31T06:50:18;100879.41;;;29.26;30.95
9415;BME280;4746;35.664;139.738;2023-10-31T06:52:46;100874.31;;;28.94;31.10
9415;BME280;4746;35.664;139.738;2023-10-31T06:55:14;100889.88;;;28.68;31.97
9415;BME280;4746;35.664;139.738;2023-10-31T06:57:42;100892.25;;;28.41;32.51
9415;BME280;4746;35.664;139.738;2023-10-31T07:00:12;100892.34;;;28.24;32.57
9415;BME280;4746;35.664;139.738;2023-10-31T07:02:40;100886.13;;;28.08;32.83
9415;BME280;4746;35.664;139.738;2023-10-31T07:05:07;100872.84;;;27.95;33.76
9415;BME280;4746;35.664;139.738;2023-10-31T07:07:36;100871.78;;;27.82;33.72
9415;BME280;4746;35.664;139.738;2023-10-31T07:10:04;100874.97;;;27.71;33.89
9415;BME280;4746;35.664;139.738;2023-10-31T07:12:34;100877.31;;;27.60;33.85
9415;BME280;4746;35.664;139.738;2023-10-31T07:15:01;100883.28;;;27.47;34.55
9415;BME280;4746;35.664;139.738;2023-10-31T07:17:33;100882.09;;;27.36;34.65
9415;BME280;4746;35.664;139.738;2023-10-31T07:20:01;100896.75;;;27.24;34.75
9415;BME280;4746;35.664;139.738;2023-10-31T07:22:28;100901.72;;;27.13;35.24
9415;BME280;4746;35.664;139.738;2023-10-31T07:24:56;100904.78;;;27.04;35.91
9415;BME280;4746;35.664;139.738;2023-10-31T07:27:24;100898.16;;;26.96;35.81
9415;BME280;4746;35.664;139.738;2023-10-31T07:29:52;100895.91;;;26.88;35.88
9415;BME280;4746;35.664;139.738;2023-10-31T07:32:21;100901.53;;;26.81;36.33
9415;BME280;4746;35.664;139.738;2023-10-31T07:34:49;100898.63;;;26.68;36.38
9415;BME280;4746;35.664;139.738;2023-10-31T07:37:16;100900.69;;;26.62;36.69
9415;BME280;4746;35.664;139.738;2023-10-31T07:39:44;100900.34;;;26.51;36.74
9415;BME280;4746;35.664;139.738;2023-10-31T07:42:12;100899.72;;;26.46;37.09
9415;BME280;4746;35.664;139.738;2023-10-31T07:44:39;100889.63;;;26.37;37.25
9415;BME280;4746;35.664;139.738;2023-10-31T07:47:07;100890.66;;;26.33;37.37
9415;BME280;4746;35.664;139.738;2023-10-31T07:49:35;100879.78;;;26.22;37.33
9415;BME280;4746;35.664;139.738;2023-10-31T07:52:03;100881.84;;;26.16;37.81
9415;BME280;4746;35.664;139.738;2023-10-31T07:54:31;100878.75;;;26.06;38.17
9415;BME280;4746;35.664;139.738;2023-10-31T07:56:59;100883.38;;;26.01;38.35
9415;BME280;4746;35.664;139.738;2023-10-31T07:59:26;100876.84;;;25.92;38.52
9415;BME280;4746;35.664;139.738;2023-10-31T08:02:03;100891.16;;;25.85;38.55
9415;BME280;4746;35.664;139.738;2023-10-31T08:04:33;100888.97;;;25.76;39.07
9415;BME280;4746;35.664;139.738;2023-10-31T08:07:00;100896.63;;;25.60;39.33
9415;BME280;4746;35.664;139.738;2023-10-31T08:09:31;100899.56;;;25.53;39.45
9415;BME280;4746;35.664;139.738;2023-10-31T08:11:58;100890.44;;;25.41;39.69
9415;BME280;4746;35.664;139.738;2023-10-31T08:14:26;100897.78;;;25.33;40.03
9415;BME280;4746;35.664;139.738;2023-10-31T08:16:54;100897.19;;;25.27;40.55
9415;BME280;4746;35.664;139.738;2023-10-31T08:19:21;100905.25;;;25.23;40.31
9415;BME280;4746;35.664;139.738;2023-10-31T08:21:50;100907.13;;;25.19;40.16
9415;BME280;4746;35.664;139.738;2023-10-31T08:24:17;100904.75;;;25.13;40.08
9415;BME280;4746;35.664;139.738;2023-10-31T08:26:45;100910.38;;;25.04;40.30
9415;BME280;4746;35.664;139.738;2023-10-31T08:29:13;100913.22;;;24.98;40.70
9415;BME280;4746;35.664;139.738;2023-10-31T08:31:40;100922.19;;;24.93;40.71
9415;BME280;4746;35.664;139.738;2023-10-31T08:34:08;100920.00;;;24.82;40.62
9415;BME280;4746;35.664;139.738;2023-10-31T08:36:37;100930.69;;;24.78;41.13
9415;BME280;4746;35.664;139.738;2023-10-31T08:39:09;100922.06;;;24.74;41.29
9415;BME280;4746;35.664;139.738;2023-10-31T08:41:37;100925.75;;;24.70;41.29
9415;BME280;4746;35.664;139.738;2023-10-31T08:44:06;100923.28;;;24.66;41.25
9415;BME280;4746;35.664;139.738;2023-10-31T08:46:35;100923.44;;;24.63;41.38
9415;BME280;4746;35.664;139.738;2023-10-31T08:49:03;100926.09;;;24.61;40.83
9415;BME280;4746;35.664;139.738;2023-10-31T08:51:32;100921.94;;;24.56;41.30
9415;BME280;4746;35.664;139.738;2023-10-31T08:54:00;100917.78;;;24.51;41.32
9415;BME280;4746;35.664;139.738;2023-10-31T08:56:29;100910.81;;;24.50;41.08
9415;BME280;4746;35.664;139.738;2023-10-31T08:59:02;100916.25;;;24.45;41.05
9415;BME280;4746;35.664;139.738;2023-10-31T09:01:30;100913.81;;;24.41;41.40
9415;BME280;4746;35.664;139.738;2023-10-31T09:03:59;100915.66;;;24.37;41.75
9415;BME280;4746;35.664;139.738;2023-10-31T09:06:26;100916.63;;;24.35;41.95
9415;BME280;4746;35.664;139.738;2023-10-31T09:08:54;100915.06;;;24.31;42.04
9415;BME280;4746;35.664;139.738;2023-10-31T09:11:22;100919.41;;;24.30;41.93
9415;BME280;4746;35.664;139.738;2023-10-31T09:13:49;100913.34;;;24.30;41.73
9415;BME280;4746;35.664;139.738;2023-10-31T09:16:17;100912.66;;;24.25;42.23
9415;BME280;4746;35.664;139.738;2023-10-31T09:18:45;100912.75;;;24.22;41.90
9415;BME280;4746;35.664;139.738;2023-10-31T09:21:13;100915.50;;;24.19;41.99
9415;BME280;4746;35.664;139.738;2023-10-31T09:23:42;100917.38;;;24.15;42.15
9415;BME280;4746;35.664;139.738;2023-10-31T09:26:09;100907.81;;;24.14;42.15
9415;BME280;4746;35.664;139.738;2023-10-31T09:28:37;100913.88;;;24.15;42.45
9415;BME280;4746;35.664;139.738;2023-10-31T09:31:06;100901.81;;;24.11;42.65
9415;BME280;4746;35.664;139.738;2023-10-31T09:33:34;100900.25;;;24.07;42.88
9415;BME280;4746;35.664;139.738;2023-10-31T09:36:01;100901.25;;;24.03;42.48
9415;BME280;4746;35.664;139.738;2023-10-31T09:38:29;100904.88;;;23.99;42.62
9415;BME280;4746;35.664;139.738;2023-10-31T09:40:57;100900.56;;;23.98;42.70
9415;BME280;4746;35.664;139.738;2023-10-31T09:43:24;100901.47;;;23.97;42.50
9415;BME280;4746;35.664;139.738;2023-10-31T09:45:53;100891.91;;;23.96;42.92
9415;BME280;4746;35.664;139.738;2023-10-31T09:48:21;100898.75;;;24.00;42.96
9415;BME280;4746;35.664;139.738;2023-10-31T09:50:49;100886.56;;;23.99;43.00
9415;BME280;4746;35.664;139.738;2023-10-31T09:53:17;100897.03;;;23.99;43.60
9415;BME280;4746;35.664;139.738;2023-10-31T09:55:48;100890.75;;;24.03;43.53
9415;BME280;4746;35.664;139.738;2023-10-31T09:58:16;100900.25;;;24.07;43.67
9415;BME280;4746;35.664;139.738;2023-10-31T10:00:45;100891.34;;;24.11;43.60
9415;BME280;4746;35.664;139.738;2023-10-31T10:03:15;100889.41;;;24.16;43.71
9415;BME280;4746;35.664;139.738;2023-10-31T10:05:48;100884.16;;;24.16;43.29
9415;BME280;4746;35.664;139.738;2023-10-31T10:08:16;100884.16;;;24.16;43.01
9415;BME280;4746;35.664;139.738;2023-10-31T10:10:50;100893.44;;;24.24;43.37
9415;BME280;4746;35.664;139.738;2023-10-31T10:13:23;100886.41;;;24.26;42.87
9415;BME280;4746;35.664;139.738;2023-10-31T10:15:51;100886.50;;;24.23;43.04
9415;BME280;4746;35.664;139.738;2023-10-31T10:18:32;100892.38;;;24.30;43.03
9415;BME280;4746;35.664;139.738;2023-10-31T10:21:04;100895.16;;;24.25;42.90
9415;BME280;4746;35.664;139.738;2023-10-31T10:23:35;100901.38;;;24.23;43.06
9415;BME280;4746;35.664;139.738;2023-10-31T10:26:03;100903.31;;;24.18;43.16
9415;BME280;4746;35.664;139.738;2023-10-31T10:28:33;100906.09;;;24.13;43.61
9415;BME280;4746;35.664;139.738;2023-10-31T10:31:00;100904.44;;;24.11;43.50
9415;BME280;4746;35.664;139.738;2023-10-31T10:33:28;100904.50;;;24.09;43.64
9415;BME280;4746;35.664;139.738;2023-10-31T10:35:56;100909.69;;;24.11;43.99
9415;BME280;4746;35.664;139.738;2023-10-31T10:38:25;100907.16;;;24.08;44.07
9415;BME280;4746;35.664;139.738;2023-10-31T10:40:57;100908.19;;;24.04;44.09
9415;BME280;4746;35.664;139.738;2023-10-31T10:43:26;100906.47;;;24.03;43.70
9415;BME280;4746;35.664;139.738;2023-10-31T10:45:58;100907.38;;;24.02;43.96
9415;BME280;4746;35.664;139.738;2023-10-31T10:48:28;100909.22;;;24.00;44.38
9415;BME280;4746;35.664;139.738;2023-10-31T10:53:48;100911.03;;;23.98;44.43
9415;BME280;4746;35.664;139.738;2023-10-31T10:56:46;100916.22;;;23.99;44.52
9415;BME280;4746;35.664;139.738;2023-10-31T10:59:20;100909.53;;;23.91;44.44
9415;BME280;4746;35.664;139.738;2023-10-31T11:01:49;100913.19;;;23.87;44.43
9415;BME280;4746;35.664;139.738;2023-10-31T11:04:17;100910.69;;;23.84;44.88
9415;BME280;4746;35.664;139.738;2023-10-31T11:06:46;100911.47;;;23.86;44.90
9415;BME280;4746;35.664;139.738;2023-10-31T11:09:15;100914.16;;;23.84;44.98
9415;BME280;4746;35.664;139.738;2023-10-31T11:11:45;100910.56;;;23.87;45.28
9415;BME280;4746;35.664;139.738;2023-10-31T11:14:18;100912.28;;;23.88;45.08
9415;BME280;4746;35.664;139.738;2023-10-31T11:16:55;100912.28;;;23.88;45.04
9415;BME280;4746;35.664;139.738;2023-10-31T11:19:24;100909.88;;;23.82;45.61
9415;BME280;4746;35.664;139.738;2023-10-31T11:22:00;100921.16;;;23.84;45.59
9415;BME280;4746;35.664;139.738;2023-10-31T11:24:33;100923.88;;;23.81;45.54
9415;BME280;4746;35.664;139.738;2023-10-31T11:27:04;100924.84;;;23.79;45.66
9415;BME280;4746;35.664;139.738;2023-10-31T11:29:33;100911.91;;;23.74;45.78
9415;BME280;4746;35.664;139.738;2023-10-31T11:32:02;100915.41;;;23.75;45.85
9415;BME280;4746;35.664;139.738;2023-10-31T11:34:33;100917.06;;;23.77;45.87
9415;BME280;4746;35.664;139.738;2023-10-31T11:37:36;100907.19;;;23.83;45.76
9415;BME280;4746;35.664;139.738;2023-10-31T11:40:17;100907.19;;;23.83;45.93
9415;BME280;4746;35.664;139.738;2023-10-31T11:42:50;100908.16;;;23.81;45.90
9415;BME280;4746;35.664;139.738;2023-10-31T11:45:41;100914.16;;;23.84;45.98
9415;BME280;4746;35.664;139.738;2023-10-31T11:48:11;100908.50;;;23.72;46.29
9415;BME280;4746;35.664;139.738;2023-10-31T11:50:40;100908.50;;;23.72;46.54
9415;BME280;4746;35.664;139.738;2023-10-31T11:53:14;100909.28;;;23.74;46.66
9415;BME280;4746;35.664;139.738;2023-10-31T11:55:46;100911.06;;;23.74;47.02
9415;BME280;4746;35.664;139.738;2023-10-31T11:58:24;100918.78;;;23.77;46.80
9415;BME280;4746;35.664;139.738;2023-10-31T12:01:06;100918.75;;;23.78;46.94
9415;BME280;4746;35.664;139.738;2023-10-31T12:03:43;100917.88;;;23.78;46.24
9415;BME280;4746;35.664;139.738;2023-10-31T12:06:16;100920.56;;;23.76;46.58
9415;BME280;4746;35.664;139.738;2023-10-31T12:09:00;100919.59;;;23.79;47.04
9415;BME280;4746;35.664;139.738;2023-10-31T12:11:28;100915.44;;;23.73;46.84
9415;BME280;4746;35.664;139.738;2023-10-31T12:14:00;100915.41;;;23.75;46.66
9415;BME280;4746;35.664;139.738;2023-10-31T12:16:33;100922.22;;;23.79;46.57
9415;BME280;4746;35.664;139.738;2023-10-31T12:19:06;100922.16;;;23.80;47.08
9415;BME280;4746;35.664;139.738;2023-10-31T12:21:45;100924.69;;;23.83;47.11
9415;BME280;4746;35.664;139.738;2023-10-31T12:24:18;100929.22;;;23.78;46.82
9415;BME280;4746;35.664;139.738;2023-10-31T12:26:46;100931.13;;;23.73;47.28
9415;BME280;4746;35.664;139.738;2023-10-31T12:29:20;100932.28;;;23.65;47.81
9415;BME280;4746;35.664;139.738;2023-10-31T12:31:54;100928.88;;;23.63;47.41
9415;BME280;4746;35.664;139.738;2023-10-31T12:34:25;100925.22;;;23.67;47.46
9415;BME280;4746;35.664;139.738;2023-10-31T12:36:55;100916.31;;;23.74;47.69
9415;BME280;4746;35.664;139.738;2023-10-31T12:39:28;100917.13;;;23.74;47.31
9415;BME280;4746;35.664;139.738;2023-10-31T12:41:56;100922.28;;;23.77;47.48
9415;BME280;4746;35.664;139.738;2023-10-31T12:44:27;100914.31;;;23.80;47.69
9415;BME280;4746;35.664;139.738;2023-10-31T12:46:55;100914.44;;;23.77;47.27
9415;BME280;4746;35.664;139.738;2023-10-31T12:49:23;100912.72;;;23.76;47.32
9415;BME280;4746;35.664;139.738;2023-10-31T12:52:03;100913.41;;;23.81;47.98
9415;BME280;4746;35.664;139.738;2023-10-31T12:54:37;100909.97;;;23.79;47.55
9415;BME280;4746;35.664;139.738;2023-10-31T12:57:09;100909.97;;;23.79;47.26
9415;BME280;4746;35.664;139.738;2023-10-31T12:59:39;100913.53;;;23.78;47.69
9415;BME280;4746;35.664;139.738;2023-10-31T13:02:07;100910.09;;;23.76;47.51
9415;BME280;4746;35.664;139.738;2023-10-31T13:04:37;100905.81;;;23.74;48.10